Time;durP1;ratioP1;P1;durP2;ratioP2;P2;SDS_P1;SDS_P2;PMS_P1;PMS_P2;Temp;Humidity;BMP_temperature;BMP_pressure;BME280_temperature;BME280_humidity;BME280_pressure;Samples;Min_cycle;Max_cycle;Signal;HPM_P1;HPM_P2
2022/10/27 00:00:37;;;;;;;3.47;2.38;;;;;20.20;101956.00;;;;5088632;28;20190;-75
2022/10/27 00:03:05;;;;;;;2.65;2.10;;;;;20.20;101958.00;;;;5088404;28;20718;-75
2022/10/27 00:05:33;;;;;;;2.55;1.65;;;;;20.20;101956.00;;;;5088110;28;20656;-75
2022/10/27 00:08:02;;;;;;;2.95;2.17;;;;;20.10;101959.00;;;;5088731;28;20202;-75
2022/10/27 00:10:29;;;;;;;5.10;2.40;;;;;20.10;101962.00;;;;5087872;28;20205;-75
2022/10/27 00:12:57;;;;;;;6.18;2.25;;;;;20.10;101960.00;;;;5087944;28;20205;-75
2022/10/27 00:15:24;;;;;;;15.27;2.58;;;;;20.10;101961.00;;;;5091420;28;20655;-75
2022/10/27 00:17:51;;;;;;;4.40;2.30;;;;;20.10;101957.00;;;;5092073;28;20754;-75
2022/10/27 00:20:19;;;;;;;4.88;2.40;;;;;20.10;101951.00;;;;5091866;28;20202;-75
2022/10/27 00:22:46;;;;;;;2.25;1.88;;;;;20.10;101955.00;;;;5091957;28;20226;-75
2022/10/27 00:25:14;;;;;;;3.10;2.13;;;;;20.10;101953.00;;;;5091577;28;20587;-75
2022/10/27 00:27:42;;;;;;;4.28;2.15;;;;;20.10;101951.00;;;;5091528;28;20205;-75
2022/10/27 00:30:10;;;;;;;4.20;2.15;;;;;20.10;101950.00;;;;5091102;28;20582;-75
2022/10/27 00:32:38;;;;;;;5.35;2.40;;;;;20.10;101957.00;;;;5091559;28;20221;-75
2022/10/27 00:35:06;;;;;;;4.05;2.20;;;;;20.10;101957.00;;;;5091467;28;20203;-75
2022/10/27 00:37:33;;;;;;;4.55;2.38;;;;;20.10;101961.00;;;;5091219;28;20794;-75
2022/10/27 00:40:00;;;;;;;5.57;2.22;;;;;20.10;101962.00;;;;5091135;28;20194;-75
2022/10/27 00:42:29;;;;;;;3.28;2.25;;;;;20.10;101961.00;;;;5090999;28;20232;-75
2022/10/27 00:44:56;;;;;;;5.22;2.10;;;;;20.10;101965.00;;;;5091128;28;20205;-75
2022/10/27 00:47:26;;;;;;;4.75;2.10;;;;;20.10;101966.00;;;;5090896;28;20213;-75
2022/10/27 00:49:59;;;;;;;3.75;2.50;;;;;20.00;101964.00;;;;5091313;28;20210;-75
2022/10/27 00:52:31;;;;;;;3.65;2.00;;;;;20.00;101966.00;;;;5091197;28;20197;-75
2022/10/27 00:55:02;;;;;;;6.53;1.88;;;;;20.00;101970.00;;;;5091280;28;20221;-75
2022/10/27 00:57:33;;;;;;;5.63;2.40;;;;;20.00;101960.00;;;;5090281;28;20198;-75
2022/10/27 01:00:02;;;;;;;3.67;2.33;;;;;20.00;101964.00;;;;5090832;28;20207;-75
2022/10/27 01:02:29;;;;;;;10.13;2.85;;;;;20.00;101970.00;;;;5090537;28;20229;-75
2022/10/27 01:05:01;;;;;;;3.65;1.90;;;;;20.00;101966.00;;;;5091268;28;20190;-75
2022/10/27 01:07:29;;;;;;;3.60;2.03;;;;;20.00;101967.00;;;;5090898;28;20194;-75
2022/10/27 01:09:57;;;;;;;3.53;2.60;;;;;20.00;101969.00;;;;5090903;28;20202;-75
2022/10/27 01:12:24;;;;;;;3.45;2.28;;;;;20.00;101969.00;;;;5090032;28;20205;-75
2022/10/27 01:14:53;;;;;;;4.28;2.22;;;;;19.90;101967.00;;;;5090812;28;20202;-76
2022/10/27 01:17:37;;;;;;;6.55;2.35;;;;;19.90;101965.00;;;;5090745;28;20683;-76
2022/10/27 01:20:47;;;;;;;2.72;1.92;;;;;19.80;101969.00;;;;5091018;28;20205;-76
2022/10/27 01:23:26;;;;;;;8.77;2.88;;;;;19.80;101969.00;;;;5090071;28;20229;-76
2022/10/27 01:26:28;;;;;;;7.35;2.20;;;;;19.70;101974.00;;;;5089694;28;20473;-76
2022/10/27 01:29:35;;;;;;;5.82;2.30;;;;;19.70;101981.00;;;;5090379;28;20206;-76
2022/10/27 01:32:12;;;;;;;6.75;2.75;;;;;19.80;101980.00;;;;5090775;28;20221;-76
2022/10/27 01:34:44;;;;;;;3.90;2.47;;;;;19.80;101979.00;;;;5089746;28;20230;-76
2022/10/27 01:37:15;;;;;;;4.55;2.38;;;;;19.80;101987.00;;;;5089691;28;20694;-76
2022/10/27 01:39:48;;;;;;;4.20;2.80;;;;;19.80;101991.00;;;;5090415;28;20205;-76
2022/10/27 01:42:21;;;;;;;6.40;2.30;;;;;19.80;101997.00;;;;5089724;28;20228;-76
2022/10/27 01:44:52;;;;;;;7.38;2.50;;;;;19.80;101993.00;;;;5090391;28;20202;-76
2022/10/27 01:47:22;;;;;;;3.83;1.90;;;;;19.80;101997.00;;;;5089481;28;20202;-76
2022/10/27 01:49:53;;;;;;;4.55;2.05;;;;;19.70;101993.00;;;;5090288;28;20189;-76
2022/10/27 01:52:42;;;;;;;4.07;2.40;;;;;19.70;101987.00;;;;5089763;28;20271;-76
2022/10/27 01:55:14;;;;;;;3.92;2.30;;;;;19.80;101982.00;;;;5089767;28;20194;-76
2022/10/27 01:58:06;;;;;;;3.00;2.30;;;;;19.70;101978.00;;;;5089129;28;20255;-76
2022/10/27 02:00:41;;;;;;;4.22;2.72;;;;;19.80;101983.00;;;;5089711;28;20574;-76
2022/10/27 02:03:16;;;;;;;4.07;2.95;;;;;19.80;101978.00;;;;5089845;28;20217;-76
2022/10/27 02:05:50;;;;;;;6.03;2.58;;;;;19.80;101982.00;;;;5089788;28;20204;-76
2022/10/27 02:08:24;;;;;;;4.07;2.40;;;;;19.80;101974.00;;;;5088964;28;20587;-76
2022/10/27 02:10:57;;;;;;;5.80;2.60;;;;;19.80;101978.00;;;;5089594;28;20232;-76
2022/10/27 02:13:25;;;;;;;3.65;2.55;;;;;19.90;101971.00;;;;5089565;28;20202;-76
2022/10/27 02:15:55;;;;;;;4.00;2.67;;;;;19.90;101976.00;;;;5089488;28;20199;-76
2022/10/27 02:18:27;;;;;;;3.63;2.40;;;;;19.90;101975.00;;;;5088917;28;20210;-76
2022/10/27 02:20:57;;;;;;;5.43;2.40;;;;;19.90;101967.00;;;;5089456;28;20198;-76
2022/10/27 02:23:24;;;;;;;5.85;2.83;;;;;19.90;101961.00;;;;5089478;28;20237;-76
2022/10/27 02:25:58;;;;;;;3.17;2.38;;;;;19.90;101956.00;;;;5089272;28;20213;-76
2022/10/27 02:28:30;;;;;;;3.25;2.13;;;;;19.90;101958.00;;;;5089259;28;20198;-76
2022/10/27 02:31:00;;;;;;;3.55;2.38;;;;;19.90;101953.00;;;;5089082;28;20230;-76
2022/10/27 02:33:29;;;;;;;4.10;2.33;;;;;20.00;101962.00;;;;5088161;28;20237;-76
2022/10/27 02:35:57;;;;;;;3.20;2.42;;;;;20.00;101950.00;;;;5089079;28;20203;-76
2022/10/27 02:38:24;;;;;;;3.38;2.72;;;;;20.00;101952.00;;;;5089211;28;20267;-76
2022/10/27 02:40:51;;;;;;;3.22;2.35;;;;;20.00;101956.00;;;;5088590;28;20209;-76
2022/10/27 02:43:20;;;;;;;4.53;2.78;;;;;20.00;101953.00;;;;5088932;28;20594;-76
2022/10/27 02:45:47;;;;;;;6.50;3.05;;;;;20.00;101953.00;;;;5088601;28;20621;-76
2022/10/27 02:48:14;;;;;;;5.38;2.65;;;;;20.10;101952.00;;;;5088612;28;20194;-76
2022/10/27 02:50:43;;;;;;;4.10;2.20;;;;;20.10;101957.00;;;;5089123;28;20209;-76
2022/10/27 02:53:10;;;;;;;3.78;2.47;;;;;20.10;101958.00;;;;5088947;28;20206;-76
2022/10/27 02:55:37;;;;;;;5.40;2.22;;;;;20.10;101960.00;;;;5088612;28;20296;-76
2022/10/27 02:58:05;;;;;;;6.75;3.45;;;;;20.10;101958.00;;;;5089222;28;20209;-76
2022/10/27 03:00:32;;;;;;;3.58;2.50;;;;;20.10;101952.00;;;;5088163;28;20202;-76
2022/10/27 03:02:59;;;;;;;5.30;2.85;;;;;20.10;101948.00;;;;5088524;28;20222;-76
2022/10/27 03:05:26;;;;;;;3.10;2.60;;;;;20.10;101945.00;;;;5088849;28;20190;-76
2022/10/27 03:07:55;;;;;;;7.10;2.33;;;;;20.10;101938.00;;;;5088419;28;20909;-76
2022/10/27 03:10:22;;;;;;;3.17;2.28;;;;;20.10;101939.00;;;;5088265;28;20218;-76
2022/10/27 03:12:49;;;;;;;5.15;2.50;;;;;20.10;101937.00;;;;5088010;28;20206;-76
2022/10/27 03:15:17;;;;;;;3.53;2.67;;;;;20.10;101938.00;;;;5088456;28;20201;-76
2022/10/27 03:17:45;;;;;;;6.28;2.50;;;;;20.10;101934.00;;;;5088137;28;20202;-76
2022/10/27 03:20:13;;;;;;;2.97;2.30;;;;;20.10;101941.00;;;;5087715;28;20262;-76
2022/10/27 03:22:41;;;;;;;3.40;2.22;;;;;20.10;101932.00;;;;5087997;28;20710;-76
2022/10/27 03:25:13;;;;;;;4.75;3.28;;;;;20.00;101930.00;;;;5088175;28;20206;-76
2022/10/27 03:27:41;;;;;;;6.97;2.72;;;;;20.00;101934.00;;;;5088208;28;20249;-76
2022/10/27 03:30:10;;;;;;;6.50;2.25;;;;;20.00;101936.00;;;;5087309;28;20688;-76
2022/10/27 03:32:38;;;;;;;3.00;2.22;;;;;20.00;101936.00;;;;5087910;28;20218;-76
2022/10/27 03:35:06;;;;;;;2.80;2.15;;;;;20.00;101935.00;;;;5087888;28;20690;-76
2022/10/27 03:37:33;;;;;;;4.18;2.20;;;;;20.00;101933.00;;;;5088120;28;20213;-76
2022/10/27 03:40:00;;;;;;;4.03;2.15;;;;;20.00;101935.00;;;;5087652;28;20198;-76
2022/10/27 03:42:29;;;;;;;4.50;2.40;;;;;19.90;101929.00;;;;5087774;28;20217;-76
2022/10/27 03:44:56;;;;;;;3.67;2.33;;;;;19.90;101936.00;;;;5087642;28;20202;-76
2022/10/27 03:47:24;;;;;;;6.20;2.50;;;;;19.90;101937.00;;;;5088091;28;20206;-76
2022/10/27 03:49:51;;;;;;;4.63;2.08;;;;;19.90;101934.00;;;;5087815;28;20555;-76
2022/10/27 03:52:20;;;;;;;8.00;2.33;;;;;19.90;101936.00;;;;5088451;28;20202;-76
2022/10/27 03:54:47;;;;;;;4.07;1.58;;;;;19.90;101934.00;;;;5087993;28;20206;-76
2022/10/27 03:57:15;;;;;;;3.22;2.00;;;;;19.90;101936.00;;;;5088274;28;20676;-76
2022/10/27 03:59:43;;;;;;;3.47;2.03;;;;;19.90;101929.00;;;;5088470;28;20691;-76
2022/10/27 04:02:11;;;;;;;4.93;2.58;;;;;19.90;101937.00;;;;5088493;28;20221;-76
2022/10/27 04:04:38;;;;;;;3.45;2.20;;;;;19.80;101927.00;;;;5088646;28;20221;-76
2022/10/27 04:07:05;;;;;;;4.15;2.20;;;;;19.80;101926.00;;;;5088445;28;20190;-76
2022/10/27 04:09:32;;;;;;;6.72;2.75;;;;;19.80;101941.00;;;;5087915;28;20280;-77
2022/10/27 04:12:00;;;;;;;3.88;2.05;;;;;19.80;101933.00;;;;5088190;28;20610;-76
2022/10/27 04:14:27;;;;;;;3.13;1.90;;;;;19.80;101930.00;;;;5088145;28;20762;-76
2022/10/27 04:16:55;;;;;;;2.22;1.95;;;;;19.80;101927.00;;;;5088017;28;20199;-76
2022/10/27 04:19:23;;;;;;;3.58;2.05;;;;;19.80;101934.00;;;;5087988;28;20706;-76
2022/10/27 04:21:50;;;;;;;3.72;2.40;;;;;19.80;101947.00;;;;5088318;28;20793;-76
2022/10/27 04:24:17;;;;;;;4.93;2.10;;;;;19.80;101947.00;;;;5087571;28;20218;-76
2022/10/27 04:26:44;;;;;;;3.92;2.20;;;;;19.80;101954.00;;;;5087991;28;20281;-76
2022/10/27 04:29:12;;;;;;;5.10;2.67;;;;;19.80;101952.00;;;;5087907;28;20201;-76
2022/10/27 04:31:39;;;;;;;8.85;1.80;;;;;19.70;101951.00;;;;5087909;28;20222;-76
2022/10/27 04:34:08;;;;;;;2.50;1.88;;;;;19.70;101954.00;;;;5087910;28;20230;-76
2022/10/27 04:36:35;;;;;;;2.60;1.75;;;;;19.70;101956.00;;;;5088516;28;20706;-76
2022/10/27 04:39:02;;;;;;;4.93;1.92;;;;;19.70;101961.00;;;;5087884;28;20231;-76
2022/10/27 04:41:30;;;;;;;3.45;1.90;;;;;19.70;101952.00;;;;5087788;28;20202;-76
2022/10/27 04:43:57;;;;;;;3.05;2.03;;;;;19.70;101956.00;;;;5087993;28;20218;-77
2022/10/27 04:46:25;;;;;;;4.80;2.33;;;;;19.60;101951.00;;;;5087513;28;20198;-76
2022/10/27 04:48:52;;;;;;;2.13;1.65;;;;;19.60;101957.00;;;;5088028;28;20198;-76
2022/10/27 04:51:20;;;;;;;6.65;1.90;;;;;19.60;101952.00;;;;5087825;28;20550;-76
2022/10/27 04:53:48;;;;;;;2.38;2.00;;;;;19.60;101950.00;;;;5087753;28;20210;-76
2022/10/27 04:56:15;;;;;;;6.82;2.00;;;;;19.60;101950.00;;;;5087457;28;20202;-76
2022/10/27 04:58:42;;;;;;;2.67;2.03;;;;;19.50;101954.00;;;;5088282;28;20206;-77
2022/10/27 05:01:11;;;;;;;6.18;1.70;;;;;19.50;101951.00;;;;5091640;28;20213;-76
2022/10/27 05:03:38;;;;;;;2.42;1.75;;;;;19.50;101948.00;;;;5091444;28;20237;-76
2022/10/27 05:06:06;;;;;;;5.10;1.92;;;;;19.50;101948.00;;;;5091727;28;20202;-76
2022/10/27 05:08:35;;;;;;;2.80;1.95;;;;;19.40;101953.00;;;;5091527;28;20209;-76
2022/10/27 05:11:02;;;;;;;2.92;2.08;;;;;19.50;101951.00;;;;5090748;28;20202;-76
2022/10/27 05:13:29;;;;;;;3.20;2.10;;;;;19.40;101945.00;;;;5091192;28;20202;-77
2022/10/27 05:16:00;;;;;;;2.53;1.60;;;;;19.40;101940.00;;;;5091284;28;20226;-76
2022/10/27 05:18:27;;;;;;;5.38;2.08;;;;;19.40;101945.00;;;;5090878;28;20202;-76
2022/10/27 05:20:54;;;;;;;3.70;2.35;;;;;19.40;101947.00;;;;5090732;28;20194;-76
2022/10/27 05:23:22;;;;;;;2.80;2.33;;;;;19.40;101942.00;;;;5091124;28;20284;-77
2022/10/27 05:25:53;;;;;;;2.72;1.90;;;;;19.30;101942.00;;;;5090999;28;20199;-76
2022/10/27 05:28:20;;;;;;;2.67;1.90;;;;;19.40;101941.00;;;;5090627;28;20586;-75
2022/10/27 05:30:48;;;;;;;2.22;1.52;;;;;19.30;101944.00;;;;5090740;28;20214;-75
2022/10/27 05:33:15;;;;;;;5.60;1.85;;;;;19.30;101941.00;;;;5090689;28;20230;-75
2022/10/27 05:35:44;;;;;;;4.43;1.70;;;;;19.30;101938.00;;;;5090753;28;20198;-75
2022/10/27 05:38:12;;;;;;;3.53;2.08;;;;;19.30;101948.00;;;;5090690;28;20687;-75
2022/10/27 05:40:39;;;;;;;3.03;1.67;;;;;19.30;101940.00;;;;5091358;28;20234;-75
2022/10/27 05:43:09;;;;;;;2.72;2.03;;;;;19.30;101936.00;;;;5091122;28;20233;-76
2022/10/27 05:45:37;;;;;;;8.88;2.17;;;;;19.30;101935.00;;;;5090281;28;20217;-76
2022/10/27 05:48:06;;;;;;;5.93;2.03;;;;;19.30;101940.00;;;;5090776;28;20660;-76
2022/10/27 05:50:34;;;;;;;4.00;2.10;;;;;19.30;101936.00;;;;5090881;28;20202;-75
2022/10/27 05:53:02;;;;;;;3.05;2.13;;;;;19.30;101940.00;;;;5090896;28;20199;-76
2022/10/27 05:55:29;;;;;;;2.88;1.90;;;;;19.30;101932.00;;;;5089820;28;20586;-76
2022/10/27 05:57:57;;;;;;;3.00;2.00;;;;;19.30;101933.00;;;;5089509;28;20194;-76
2022/10/27 06:00:29;;;;;;;5.03;2.20;;;;;19.20;101932.00;;;;5073279;28;20672;-76
2022/10/27 06:02:57;;;;;;;4.50;2.30;;;;;19.20;101934.00;;;;5070068;28;20201;-76
2022/10/27 06:05:25;;;;;;;3.15;2.30;;;;;19.20;101935.00;;;;5070216;28;20256;-76
2022/10/27 06:07:52;;;;;;;3.40;2.13;;;;;19.20;101934.00;;;;5070050;28;20199;-76
2022/10/27 06:10:19;;;;;;;4.65;2.53;;;;;19.20;101929.00;;;;5069834;28;20664;-76
2022/10/27 06:12:46;;;;;;;4.97;2.88;;;;;19.20;101931.00;;;;5069284;28;20211;-76
2022/10/27 06:15:14;;;;;;;4.18;2.78;;;;;19.20;101926.00;;;;5070005;28;20217;-76
2022/10/27 06:17:42;;;;;;;5.72;2.42;;;;;19.20;101926.00;;;;5069798;28;20571;-76
2022/10/27 06:20:10;;;;;;;2.92;2.40;;;;;19.20;101927.00;;;;5070023;28;20575;-76
2022/10/27 06:22:38;;;;;;;3.10;2.08;;;;;19.20;101924.00;;;;5069283;28;20195;-76
2022/10/27 06:25:06;;;;;;;4.05;2.60;;;;;19.20;101925.00;;;;5070245;28;20237;-76
2022/10/27 06:27:33;;;;;;;4.97;2.83;;;;;19.20;101921.00;;;;5069557;28;20637;-76
2022/10/27 06:30:00;;;;;;;4.15;2.55;;;;;19.20;101917.00;;;;5069597;28;20744;-76
2022/10/27 06:32:27;;;;;;;3.53;2.63;;;;;19.20;101917.00;;;;5069000;28;20219;-76
2022/10/27 06:34:56;;;;;;;5.88;2.75;;;;;19.20;101919.00;;;;5069502;28;20207;-76
2022/10/27 06:37:23;;;;;;;2.85;2.35;;;;;19.20;101923.00;;;;5069028;28;20198;-76
2022/10/27 06:39:50;;;;;;;3.60;2.60;;;;;19.20;101918.00;;;;5069784;28;20210;-76
2022/10/27 06:42:18;;;;;;;5.10;3.05;;;;;19.20;101917.00;;;;5069582;28;20202;-76
2022/10/27 06:44:45;;;;;;;4.78;3.13;;;;;19.20;101923.00;;;;5069197;28;20227;-76
2022/10/27 06:47:12;;;;;;;2.90;2.40;;;;;19.30;101926.00;;;;5069420;28;20203;-76
2022/10/27 06:49:39;;;;;;;3.40;2.83;;;;;19.20;101917.00;;;;5069343;28;20203;-76
2022/10/27 06:52:08;;;;;;;2.90;2.08;;;;;19.20;101910.00;;;;5069437;28;20683;-76
2022/10/27 06:54:35;;;;;;;4.40;2.25;;;;;19.30;101915.00;;;;5069391;28;20699;-76
2022/10/27 06:57:02;;;;;;;4.88;2.70;;;;;19.30;101911.00;;;;5068996;28;20211;-76
2022/10/27 06:59:30;;;;;;;8.15;3.05;;;;;19.30;101910.00;;;;5068221;28;20203;-76
2022/10/27 07:01:57;;;;;;;2.67;2.10;;;;;19.30;101915.00;;;;5069069;28;20225;-77
2022/10/27 07:04:24;;;;;;;3.40;2.63;;;;;19.30;101910.00;;;;5069287;28;20223;-77
2022/10/27 07:06:51;;;;;;;2.78;2.22;;;;;19.30;101916.00;;;;5068828;28;20198;-77
2022/10/27 07:09:20;;;;;;;3.05;2.42;;;;;19.30;101910.00;;;;5069599;28;20668;-76
2022/10/27 07:11:47;;;;;;;3.03;2.42;;;;;19.40;101913.00;;;;5069012;28;20604;-76
2022/10/27 07:14:14;;;;;;;5.63;2.15;;;;;19.40;101912.00;;;;5068394;28;20592;-77
2022/10/27 07:16:42;;;;;;;8.40;2.35;;;;;19.40;101909.00;;;;5068726;28;20195;-74
2022/10/27 07:19:09;;;;;;;7.25;2.33;;;;;19.40;101906.00;;;;5068476;28;20672;-75
2022/10/27 07:21:36;;;;;;;4.47;1.88;;;;;19.40;101903.00;;;;5068849;28;20194;-75
2022/10/27 07:24:04;;;;;;;4.03;2.17;;;;;19.40;101897.00;;;;5067841;28;20589;-75
2022/10/27 07:26:32;;;;;;;2.80;2.50;;;;;19.40;101903.00;;;;5068192;28;20691;-75
2022/10/27 07:28:59;;;;;;;4.90;2.72;;;;;19.40;101902.00;;;;5069078;28;20203;-75
2022/10/27 07:31:27;;;;;;;3.72;2.17;;;;;19.50;101903.00;;;;5068865;28;20222;-75
2022/10/27 07:33:54;;;;;;;3.40;2.47;;;;;19.50;101900.00;;;;5068546;28;20222;-75
2022/10/27 07:36:21;;;;;;;5.25;2.38;;;;;19.50;101907.00;;;;5068066;28;20744;-75
2022/10/27 07:38:48;;;;;;;3.40;2.20;;;;;19.50;101908.00;;;;5068540;28;20195;-75
2022/10/27 07:41:16;;;;;;;4.65;2.10;;;;;19.50;101909.00;;;;5068238;28;20214;-75
2022/10/27 07:43:44;;;;;;;5.25;2.95;;;;;19.50;101908.00;;;;5068408;28;20194;-75
2022/10/27 07:46:12;;;;;;;5.22;2.70;;;;;19.60;101913.00;;;;5068148;28;20571;-75
2022/10/27 07:48:39;;;;;;;3.67;2.33;;;;;19.60;101904.00;;;;5068852;28;20210;-75
2022/10/27 07:51:06;;;;;;;3.40;2.28;;;;;19.60;101900.00;;;;5068757;28;20688;-75
2022/10/27 07:53:33;;;;;;;3.67;2.63;;;;;19.60;101900.00;;;;5068729;28;20304;-75
2022/10/27 07:56:01;;;;;;;3.20;2.00;;;;;19.70;101905.00;;;;5068119;28;20620;-75
2022/10/27 07:58:28;;;;;;;3.85;2.35;;;;;19.70;101901.00;;;;5068089;28;20228;-76
2022/10/27 08:00:58;;;;;;;3.65;2.30;;;;;19.70;101909.00;;;;5067935;28;20206;-75
2022/10/27 08:03:29;;;;;;;5.20;2.08;;;;;19.70;101909.00;;;;5068302;28;20199;-76
2022/10/27 08:06:01;;;;;;;2.20;1.92;;;;;19.80;101913.00;;;;5068405;28;20194;-75
2022/10/27 08:08:29;;;;;;;2.75;2.38;;;;;19.80;101918.00;;;;5067128;28;20221;-76
2022/10/27 08:10:56;;;;;;;2.97;2.17;;;;;19.90;101915.00;;;;5068366;28;20199;-75
2022/10/27 08:13:24;;;;;;;3.63;2.28;;;;;20.00;101912.00;;;;5068001;28;20198;-75
2022/10/27 08:15:51;;;;;;;3.50;2.15;;;;;20.00;101903.00;;;;5067981;28;20199;-75
2022/10/27 08:18:19;;;;;;;4.68;2.70;;;;;20.10;101898.00;;;;5067657;28;20217;-75
2022/10/27 08:20:47;;;;;;;2.72;2.22;;;;;20.10;101901.00;;;;5067756;28;20206;-75
2022/10/27 08:23:17;;;;;;;3.15;2.20;;;;;20.20;101897.00;;;;5066938;28;20658;-75
2022/10/27 08:25:45;;;;;;;5.75;2.53;;;;;20.20;101894.00;;;;5067100;28;20226;-75
2022/10/27 08:28:13;;;;;;;2.53;1.73;;;;;20.30;101897.00;;;;5067186;28;20199;-75
2022/10/27 08:30:41;;;;;;;3.10;1.77;;;;;20.30;101895.00;;;;5067283;28;20211;-75
2022/10/27 08:33:09;;;;;;;3.00;2.20;;;;;20.40;101892.00;;;;5066601;28;20246;-75
2022/10/27 08:35:38;;;;;;;2.13;1.70;;;;;20.40;101894.00;;;;5070141;28;20720;-75
2022/10/27 08:38:07;;;;;;;5.40;2.83;;;;;20.50;101897.00;;;;5071100;28;20202;-75
2022/10/27 08:40:43;;;;;;;2.85;1.45;;;;;20.50;101891.00;;;;5071000;28;20199;-75
2022/10/27 08:43:33;;;;;;;3.20;1.90;;;;;20.50;101879.00;;;;5069961;28;20848;-75
2022/10/27 08:46:05;;;;;;;3.42;1.92;;;;;20.70;101872.00;;;;5070811;28;20233;-75
2022/10/27 08:48:34;;;;;;;2.47;1.73;;;;;20.80;101875.00;;;;5070663;28;20202;-75
2022/10/27 08:51:04;;;;;;;3.63;2.05;;;;;20.80;101877.00;;;;5070704;28;20206;-75
2022/10/27 08:53:35;;;;;;;2.80;1.70;;;;;20.90;101874.00;;;;5070498;28;20207;-75
2022/10/27 08:56:06;;;;;;;3.38;1.77;;;;;21.00;101875.00;;;;5070923;28;20276;-75
2022/10/27 08:58:39;;;;;;;3.13;1.77;;;;;21.00;101869.00;;;;5070175;28;20248;-75
2022/10/27 09:01:17;;;;;;;3.65;1.70;;;;;21.10;101873.00;;;;5071233;28;20353;-75
2022/10/27 09:04:15;;;;;;;3.65;1.92;;;;;21.10;101876.00;;;;5070834;28;20195;-74
2022/10/27 09:06:52;;;;;;;3.17;1.50;;;;;21.30;101865.00;;;;5070781;28;20191;-74
2022/10/27 09:09:26;;;;;;;2.33;1.65;;;;;21.40;101865.00;;;;5070520;28;20186;-75
2022/10/27 09:12:03;;;;;;;3.80;1.80;;;;;21.50;101862.00;;;;5070706;28;20202;-75
2022/10/27 09:14:46;;;;;;;2.70;2.00;;;;;21.60;101873.00;;;;5070126;28;20736;-74
2022/10/27 09:17:19;;;;;;;4.05;1.80;;;;;21.70;101870.00;;;;5069899;28;20629;-74
2022/10/27 09:19:50;;;;;;;2.25;1.60;;;;;21.70;101869.00;;;;5069919;28;20591;-76
2022/10/27 09:22:20;;;;;;;4.05;1.67;;;;;21.80;101862.00;;;;5070093;28;20711;-75
2022/10/27 09:24:55;;;;;;;3.08;1.73;;;;;21.90;101870.00;;;;5070434;28;20227;-75
2022/10/27 09:27:23;;;;;;;2.60;2.00;;;;;22.00;101846.00;;;;5070001;28;20199;-76
2022/10/27 09:29:52;;;;;;;2.15;1.80;;;;;22.00;101851.00;;;;5069735;28;20243;-76
2022/10/27 09:32:23;;;;;;;2.25;1.40;;;;;22.00;101842.00;;;;5070059;28;20591;-76
2022/10/27 09:34:55;;;;;;;4.30;2.08;;;;;22.10;101849.00;;;;5070430;28;20198;-76
2022/10/27 09:37:26;;;;;;;4.18;1.77;;;;;22.10;101840.00;;;;5070112;28;20212;-76
2022/10/27 09:39:56;;;;;;;2.78;1.63;;;;;22.20;101843.00;;;;5070087;28;20199;-76
2022/10/27 09:42:23;;;;;;;3.40;2.35;;;;;22.20;101828.00;;;;5069320;28;20276;-77
2022/10/27 09:44:55;;;;;;;2.40;1.83;;;;;22.20;101823.00;;;;5070150;28;20230;-76
2022/10/27 09:47:24;;;;;;;6.43;2.42;;;;;22.30;101825.00;;;;5069012;28;20206;-76
2022/10/27 09:49:52;;;;;;;3.17;2.08;;;;;22.40;101823.00;;;;5069652;28;20207;-76
2022/10/27 09:52:28;;;;;;;4.32;2.30;;;;;22.40;101826.00;;;;5069055;28;20658;-77
2022/10/27 09:54:56;;;;;;;3.42;2.38;;;;;22.50;101832.00;;;;5068401;28;20221;-76
2022/10/27 09:57:28;;;;;;;2.83;2.08;;;;;22.50;101824.00;;;;5069205;28;20222;-76
2022/10/27 10:00:00;;;;;;;7.07;2.13;;;;;22.60;101831.00;;;;5068991;28;20203;-74
2022/10/27 10:02:30;;;;;;;2.70;2.10;;;;;22.60;101835.00;;;;5069796;28;20486;-76
2022/10/27 10:04:58;;;;;;;2.15;1.65;;;;;22.70;101840.00;;;;5069502;28;20236;-77
2022/10/27 10:07:34;;;;;;;2.28;1.70;;;;;22.70;101834.00;;;;5069298;28;20213;-75
2022/10/27 10:10:04;;;;;;;3.67;1.90;;;;;22.80;101839.00;;;;5069358;28;20213;-75
2022/10/27 10:12:31;;;;;;;4.63;1.95;;;;;22.90;101831.00;;;;5068212;28;20203;-76
2022/10/27 10:15:19;;;;;;;4.88;1.90;;;;;22.80;101821.00;;;;5069580;28;20199;-76
2022/10/27 10:17:56;;;;;;;3.45;1.60;;;;;23.00;101811.00;;;;5069336;28;20199;-76
2022/10/27 10:20:39;;;;;;;4.15;1.85;;;;;23.00;101803.00;;;;5069171;28;20210;-75
2022/10/27 10:23:19;;;;;;;2.85;1.63;;;;;23.10;101803.00;;;;5069031;28;20282;-76
2022/10/27 10:25:48;;;;;;;1.83;1.50;;;;;23.20;101806.00;;;;5068742;28;20258;-76
2022/10/27 10:28:21;;;;;;;6.13;1.77;;;;;23.20;101798.00;;;;5068536;28;20203;-76
2022/10/27 10:30:52;;;;;;;3.33;2.30;;;;;23.30;101793.00;;;;5068629;28;20669;-76
2022/10/27 10:33:22;;;;;;;2.78;1.60;;;;;23.30;101795.00;;;;5068386;28;20239;-74
2022/10/27 10:35:50;;;;;;;2.92;1.90;;;;;23.40;101786.00;;;;5068917;28;20202;-76
2022/10/27 10:38:36;;;;;;;2.00;1.58;;;;;23.30;101785.00;;;;5068742;28;20199;-75
2022/10/27 10:41:05;;;;;;;4.93;1.70;;;;;23.40;101779.00;;;;5067071;28;20288;-75
2022/10/27 10:43:33;;;;;;;3.72;1.70;;;;;23.50;101775.00;;;;5068470;28;20202;-75
2022/10/27 10:46:01;;;;;;;2.63;1.60;;;;;23.50;101793.00;;;;5068779;28;20696;-76
2022/10/27 10:48:39;;;;;;;2.60;1.35;;;;;23.40;101790.00;;;;5068846;28;20206;-75
2022/10/27 10:51:07;;;;;;;2.22;1.50;;;;;23.50;101788.00;;;;5069109;28;20198;-75
2022/10/27 10:53:41;;;;;;;1.85;1.35;;;;;23.50;101793.00;;;;5068295;28;20210;-75
2022/10/27 10:56:22;;;;;;;1.88;1.30;;;;;23.50;101786.00;;;;5068519;28;20253;-75
2022/10/27 10:58:53;;;;;;;3.47;1.88;;;;;23.60;101778.00;;;;5068070;28;20585;-76
2022/10/27 11:01:21;;;;;;;2.08;1.42;;;;;23.60;101771.00;;;;5067945;28;20206;-76
2022/10/27 11:03:52;;;;;;;1.70;1.30;;;;;23.60;101778.00;;;;5068850;28;20203;-77
2022/10/27 11:06:20;;;;;;;1.83;1.27;;;;;23.70;101770.00;;;;5067985;28;20700;-76
2022/10/27 11:08:57;;;;;;;4.45;1.27;;;;;23.60;101774.00;;;;5073806;28;20182;-77
2022/10/27 11:11:28;;;;;;;2.42;1.45;;;;;23.70;101778.00;;;;5088036;28;20193;-76
2022/10/27 11:13:59;;;;;;;2.92;1.60;;;;;23.70;101769.00;;;;5088826;28;20198;-76
2022/10/27 11:16:27;;;;;;;3.97;1.40;;;;;23.80;101762.00;;;;5086240;28;20209;-76
2022/10/27 11:18:59;;;;;;;1.60;1.42;;;;;23.80;101760.00;;;;5086791;28;20787;-76
2022/10/27 11:21:34;;;;;;;5.25;1.45;;;;;23.80;101764.00;;;;5086603;28;20289;-76
2022/10/27 11:24:08;;;;;;;3.60;1.52;;;;;23.80;101766.00;;;;5086399;28;20201;-76
2022/10/27 11:26:38;;;;;;;1.63;1.30;;;;;23.90;101763.00;;;;5086508;28;20230;-76
2022/10/27 11:29:13;;;;;;;3.28;1.08;;;;;23.90;101769.00;;;;5087206;28;20190;-77
2022/10/27 11:31:50;;;;;;;4.75;1.52;;;;;23.90;101762.00;;;;5088034;28;20229;-76
2022/10/27 11:34:30;;;;;;;1.98;1.05;;;;;24.00;101758.00;;;;5088012;28;20226;-76
2022/10/27 11:37:01;;;;;;;2.05;0.90;;;;;24.10;101751.00;;;;5087741;28;20205;-76
2022/10/27 11:39:33;;;;;;;2.60;1.23;;;;;24.10;101753.00;;;;5088035;28;20194;-76
2022/10/27 11:42:09;;;;;;;3.67;0.93;;;;;24.10;101758.00;;;;5087666;28;20198;-76
2022/10/27 11:44:43;;;;;;;2.40;1.10;;;;;24.20;101758.00;;;;5088272;28;20205;-76
2022/10/27 11:47:16;;;;;;;6.03;1.10;;;;;24.20;101746.00;;;;5087576;28;20214;-76
2022/10/27 11:49:50;;;;;;;1.85;1.10;;;;;24.30;101753.00;;;;5086324;28;20194;-76
2022/10/27 11:52:20;;;;;;;2.28;0.70;;;;;24.40;101752.00;;;;5085920;28;20198;-76
2022/10/27 11:54:49;;;;;;;2.65;0.60;;;;;24.40;101755.00;;;;5085923;28;20194;-76
2022/10/27 11:57:31;;;;;;;2.17;1.20;;;;;24.40;101755.00;;;;5085956;28;20206;-77
2022/10/27 12:00:07;;;;;;;2.05;1.15;;;;;24.50;101754.00;;;;5086050;28;20201;-77
2022/10/27 12:02:54;;;;;;;1.33;0.80;;;;;24.50;101756.00;;;;5085676;28;20728;-76
2022/10/27 12:05:27;;;;;;;0.90;0.70;;;;;24.50;101750.00;;;;5087998;28;20218;-77
2022/10/27 12:08:08;;;;;;;2.28;0.85;;;;;24.60;101739.00;;;;5086462;28;20198;-76
2022/10/27 12:10:48;;;;;;;1.35;0.90;;;;;24.60;101734.00;;;;5090385;28;20193;-76
2022/10/27 12:13:26;;;;;;;1.33;0.98;;;;;24.60;101745.00;;;;5091352;28;20616;-76
2022/10/27 12:15:59;;;;;;;1.88;1.00;;;;;24.60;101728.00;;;;5090934;28;20570;-76
2022/10/27 12:18:36;;;;;;;2.72;1.10;;;;;24.60;101731.00;;;;5090961;28;20548;-76
2022/10/27 12:21:11;;;;;;;2.78;0.63;;;;;24.60;101732.00;;;;5091415;28;20213;-76
2022/10/27 12:23:42;;;;;;;2.13;0.82;;;;;24.60;101734.00;;;;5090345;28;20208;-76